Time;durP1;ratioP1;P1;durP2;ratioP2;P2;SDS_P1;SDS_P2;PMS_P1;PMS_P2;Temp;Humidity;BMP_temperature;BMP_pressure;BME280_temperature;BME280_humidity;BME280_pressure;Samples;Min_cycle;Max_cycle;Signal;HPM_P1;HPM_P2
2022/05/30 00:01:39;;;;;;;8.70;1.98;;;;;;;-145.45;100.00;62759.84;5348811;27;20028;-84
2022/05/30 00:04:10;;;;;;;6.90;1.88;;;;;;;-145.45;100.00;62759.84;5344912;27;20047;-84
2022/05/30 00:06:42;;;;;;;8.00;1.70;;;;;;;-145.45;100.00;62759.84;5344836;27;20499;-84
2022/05/30 00:09:13;;;;;;;7.00;2.15;;;;;;;-145.45;100.00;62759.84;5361557;27;20077;-85
2022/05/30 00:11:45;;;;;;;5.97;1.95;;;;;;;-145.45;100.00;62759.84;5346629;27;20472;-84
2022/05/30 00:14:17;;;;;;;6.30;2.13;;;;;;;-145.45;100.00;62759.84;5343244;27;20070;-84
2022/05/30 00:16:48;;;;;;;10.13;1.95;;;;;;;-145.45;100.00;62759.84;5346400;27;20034;-84
2022/05/30 00:19:20;;;;;;;5.93;1.88;;;;;;;-145.45;100.00;62759.84;5349449;27;20148;-84
2022/05/30 00:21:53;;;;;;;9.32;2.83;;;;;;;-145.45;100.00;62759.84;5349072;27;20068;-84
2022/05/30 00:24:24;;;;;;;8.73;1.88;;;;;;;-145.45;100.00;62759.84;5349893;27;20024;-84
2022/05/30 00:26:57;;;;;;;11.77;2.55;;;;;;;-145.45;100.00;62759.84;5349036;27;20019;-84
2022/05/30 00:29:32;;;;;;;7.47;1.88;;;;;;;-145.45;100.00;62759.84;5344099;27;20024;-84
2022/05/30 00:32:05;;;;;;;10.40;3.10;;;;;;;-145.45;100.00;62759.84;5328111;27;20100;-84
2022/05/30 00:34:37;;;;;;;7.55;1.98;;;;;;;-145.45;100.00;62759.84;5327185;27;20465;-84
2022/05/30 00:37:09;;;;;;;11.15;2.03;;;;;;;-145.45;100.00;62759.84;5327686;27;20028;-84
2022/05/30 00:39:40;;;;;;;8.98;2.13;;;;;;;-145.45;100.00;62759.84;5343642;27;20464;-84
2022/05/30 00:42:19;;;;;;;6.43;2.10;;;;;;;-145.45;100.00;62759.84;5327808;27;20016;-84
2022/05/30 00:44:50;;;;;;;8.18;2.20;;;;;;;-145.45;100.00;62759.84;5343225;27;20142;-84
2022/05/30 00:47:22;;;;;;;9.05;2.63;;;;;;;-145.45;100.00;62759.84;5328384;27;20016;-85
2022/05/30 00:49:55;;;;;;;7.32;2.10;;;;;;;-145.45;100.00;62759.84;5328585;27;20043;-84
2022/05/30 00:52:32;;;;;;;6.63;2.13;;;;;;;-145.45;100.00;62759.84;5343513;27;20024;-84
2022/05/30 00:55:12;;;;;;;6.18;1.80;;;;;;;-145.45;100.00;62759.84;5343496;27;20028;-83
2022/05/30 00:57:45;;;;;;;6.15;2.03;;;;;;;-145.45;100.00;62759.84;5327895;27;20103;-84
2022/05/30 01:00:26;;;;;;;10.25;2.33;;;;;;;-145.45;100.00;62759.84;5331131;27;20044;-84
2022/05/30 01:08:38;;;;;;;6.30;2.10;;;;;;;-145.45;100.00;62759.84;5348629;27;20039;-84
2022/05/30 01:11:10;;;;;;;7.95;2.45;;;;;;;-145.45;100.00;62759.84;5349241;27;20028;-84
2022/05/30 01:13:41;;;;;;;8.65;2.30;;;;;;;-145.45;100.00;62759.84;5348674;27;20080;-84
2022/05/30 01:16:12;;;;;;;10.95;2.85;;;;;;;-145.45;100.00;62759.84;5346842;27;20043;-84
2022/05/30 01:18:55;;;;;;;10.05;2.80;;;;;;;-145.45;100.00;62759.84;5342822;27;20138;-84
2022/05/30 01:22:06;;;;;;;7.53;2.60;;;;;;;-145.45;100.00;62759.84;5342710;27;20031;-83
2022/05/30 01:24:44;;;;;;;8.88;2.60;;;;;;;-145.45;100.00;62759.84;5335647;27;20488;-84
2022/05/30 01:27:46;;;;;;;11.30;3.20;;;;;;;-145.45;100.00;62759.84;5347367;27;20069;-84
2022/05/30 01:30:18;;;;;;;8.70;2.70;;;;;;;-145.45;100.00;62759.84;5346892;27;20024;-84
2022/05/30 01:32:49;;;;;;;5.85;2.28;;;;;;;-145.45;100.00;62759.84;5347802;27;20015;-84
2022/05/30 01:35:23;;;;;;;11.10;3.10;;;;;;;-145.45;100.00;62759.84;5347183;27;20020;-84
2022/05/30 01:37:58;;;;;;;11.88;2.88;;;;;;;-145.45;100.00;62759.84;5347328;27;20076;-84
2022/05/30 01:40:29;;;;;;;7.55;2.90;;;;;;;-145.45;100.00;62759.84;5349701;27;20026;-84
2022/05/30 01:43:01;;;;;;;8.25;2.50;;;;;;;-145.45;100.00;62759.84;5350411;27;20384;-84
2022/05/30 01:45:32;;;;;;;8.13;2.47;;;;;;;-145.45;100.00;62759.84;5350713;27;20020;-84
2022/05/30 01:48:04;;;;;;;10.80;2.75;;;;;;;-145.45;100.00;62759.84;5350419;27;20016;-83
2022/05/30 01:50:35;;;;;;;9.40;2.85;;;;;;;-145.45;100.00;62759.84;5352157;27;20329;-84
2022/05/30 01:53:07;;;;;;;11.27;3.33;;;;;;;-145.45;100.00;62759.84;5345243;27;20019;-83
2022/05/30 01:55:38;;;;;;;8.90;3.10;;;;;;;-145.45;100.00;62759.84;5345759;27;20084;-84
2022/05/30 01:58:10;;;;;;;8.45;2.67;;;;;;;-145.45;100.00;62759.84;5343591;27;41024;-84
2022/05/30 02:00:41;;;;;;;9.38;2.80;;;;;;;-145.45;100.00;62759.84;5344911;27;20020;-84
2022/05/30 02:03:12;;;;;;;12.55;3.00;;;;;;;-145.45;100.00;62759.84;5328282;28;20043;-83
2022/05/30 02:05:44;;;;;;;11.40;3.50;;;;;;;-145.45;100.00;62759.84;5325730;28;20024;-84
2022/05/30 02:08:20;;;;;;;7.88;3.00;;;;;;;-145.45;100.00;62759.84;5327022;27;20020;-83
2022/05/30 02:10:52;;;;;;;;;;;;;;;-145.45;100.00;62759.84;5326673;27;20020;-83
2022/05/30 02:13:23;;;;;;;7.00;2.85;;;;;;;-145.45;100.00;62759.84;5342307;27;19908;-84
2022/05/30 02:18:44;;;;;;;11.07;4.63;;;;;;;-145.45;100.00;62759.84;5304999;28;20040;-84
2022/05/30 02:21:16;;;;;;;11.18;3.88;;;;;;;-145.45;100.00;62759.84;5286740;28;20050;-84
2022/05/30 02:23:47;;;;;;;12.80;4.18;;;;;;;-145.45;100.00;62759.84;5305250;28;20039;-84
2022/05/30 02:26:19;;;;;;;9.85;4.20;;;;;;;-145.45;100.00;62759.84;5303557;28;20021;-83
2022/05/30 02:28:50;;;;;;;10.27;4.28;;;;;;;-145.45;100.00;62759.84;5285920;28;20472;-85
2022/05/30 02:31:22;;;;;;;14.20;4.80;;;;;;;-145.45;100.00;62759.84;5304823;28;20020;-84
2022/05/30 02:36:44;;;;;;;14.95;5.15;;;;;;;-145.45;100.00;62759.84;5304306;28;20135;-85
2022/05/30 02:39:23;;;;;;;10.55;4.88;;;;;;;-145.45;100.00;62759.84;5286017;28;20017;-84
2022/05/30 02:41:56;;;;;;;11.18;5.40;;;;;;;-145.45;100.00;62759.84;5298948;28;20017;-84
2022/05/30 02:44:27;;;;;;;10.18;5.38;;;;;;;-145.45;100.00;62759.84;5285586;28;20098;-84
2022/05/30 02:46:58;;;;;;;9.10;6.03;;;;;;;-145.45;100.00;62759.84;5286608;28;20020;-84
2022/05/30 02:49:30;;;;;;;14.15;5.55;;;;;;;-145.45;100.00;62759.84;5300940;28;20036;-84
2022/05/30 02:52:05;;;;;;;12.25;5.45;;;;;;;-145.45;100.00;62759.84;5286517;28;20495;-84
2022/05/30 02:54:36;;;;;;;17.00;7.20;;;;;;;-145.45;100.00;62759.84;5303909;28;20489;-85
2022/05/30 02:57:08;;;;;;;16.52;5.97;;;;;;;-145.45;100.00;62759.84;5286256;28;20056;-84
2022/05/30 02:59:40;;;;;;;20.73;7.97;;;;;;;-145.45;100.00;62759.84;5285692;28;20104;-85
2022/05/30 03:02:11;;;;;;;12.45;6.03;;;;;;;-145.45;100.00;62759.84;5302395;28;20521;-85
2022/05/30 03:04:42;;;;;;;9.10;5.32;;;;;;;-145.45;100.00;62759.84;5304250;28;20029;-84
2022/05/30 03:07:14;;;;;;;12.38;6.13;;;;;;;-145.45;100.00;62759.84;5285969;28;20013;-84
2022/05/30 03:09:45;;;;;;;9.13;4.88;;;;;;;-145.45;100.00;62759.84;5285888;28;20059;-85
2022/05/30 03:12:16;;;;;;;8.32;5.60;;;;;;;-145.45;100.00;62759.84;5285196;28;20020;-85
2022/05/30 03:14:49;;;;;;;15.45;6.85;;;;;;;-145.45;100.00;62759.84;5303417;28;20077;-84
2022/05/30 03:17:20;;;;;;;14.20;6.43;;;;;;;-145.45;100.00;62759.84;5303901;28;20025;-84
2022/05/30 03:19:52;;;;;;;14.65;5.50;;;;;;;-145.45;100.00;62759.84;5303382;28;20307;-84
2022/05/30 03:22:26;;;;;;;14.77;6.88;;;;;;;-145.45;100.00;62759.84;5284965;28;20013;-85
2022/05/30 03:24:58;;;;;;;11.02;6.30;;;;;;;-145.45;100.00;62759.84;5282439;28;20103;-84
2022/05/30 03:27:29;;;;;;;11.68;7.22;;;;;;;-145.45;100.00;62759.84;5303547;28;20437;-84
2022/05/30 03:30:00;;;;;;;12.85;6.32;;;;;;;-145.45;100.00;62759.84;5302504;28;20017;-85
2022/05/30 03:32:31;;;;;;;11.60;6.30;;;;;;;-145.45;100.00;62759.84;5303607;28;20020;-84
2022/05/30 03:35:04;;;;;;;17.95;7.07;;;;;;;-145.45;100.00;62759.84;5302710;28;20377;-84
2022/05/30 03:37:37;;;;;;;15.45;7.78;;;;;;;-145.45;100.00;62759.84;5284958;28;20507;-84
2022/05/30 03:40:12;;;;;;;16.40;7.60;;;;;;;-145.45;100.00;62759.84;5284040;28;20024;-83
2022/05/30 03:42:43;;;;;;;18.60;7.75;;;;;;;-145.45;100.00;62759.84;5303508;28;20504;-84
2022/05/30 03:45:14;;;;;;;21.08;9.77;;;;;;;-145.45;100.00;62759.84;5287338;28;20067;-84
2022/05/30 03:47:47;;;;;;;19.75;8.35;;;;;;;-145.45;100.00;62759.84;5305638;28;20048;-85
2022/05/30 03:50:25;;;;;;;17.75;8.18;;;;;;;-145.45;100.00;62759.84;5284990;28;20044;-85
2022/05/30 03:53:09;;;;;;;12.13;7.50;;;;;;;-145.45;100.00;62759.84;5290092;28;20123;-84
2022/05/30 03:55:43;;;;;;;15.77;7.68;;;;;;;-145.45;100.00;62759.84;5303412;28;20099;-84
2022/05/30 03:58:14;;;;;;;16.83;8.48;;;;;;;-145.45;100.00;62759.84;5301697;28;20027;-84
2022/05/30 04:00:46;;;;;;;17.10;8.40;;;;;;;-145.45;100.00;62759.84;5300934;28;20020;-84
2022/05/30 04:03:17;;;;;;;18.35;9.23;;;;;;;-145.45;100.00;62759.84;5303171;28;20033;-84
2022/05/30 04:05:49;;;;;;;17.70;8.38;;;;;;;-145.45;100.00;62759.84;5284888;28;20029;-84
2022/05/30 04:08:23;;;;;;;15.57;8.05;;;;;;;-145.45;100.00;62759.84;5302932;28;20487;-85
2022/05/30 04:10:55;;;;;;;19.10;9.77;;;;;;;-145.45;100.00;62759.84;5301834;28;20017;-84
2022/05/30 04:13:27;;;;;;;23.25;9.32;;;;;;;-145.45;100.00;62759.84;5301001;28;20330;-84
2022/05/30 04:16:06;;;;;;;20.33;8.23;;;;;;;-145.45;100.00;62759.84;5302679;28;20056;-85
2022/05/30 04:18:38;;;;;;;13.98;8.38;;;;;;;-145.45;100.00;62759.84;5302574;28;20020;-84
2022/05/30 04:21:11;;;;;;;19.80;8.48;;;;;;;-145.45;100.00;62759.84;5284468;28;20032;-84
2022/05/30 04:23:43;;;;;;;14.05;9.10;;;;;;;-145.45;100.00;62759.84;5301612;28;20056;-83
2022/05/30 04:26:17;;;;;;;16.95;8.95;;;;;;;-145.45;100.00;62759.84;5323726;28;20020;-84
2022/05/30 04:28:48;;;;;;;18.77;8.65;;;;;;;-145.45;100.00;62759.84;5304377;28;20119;-84
2022/05/30 04:31:23;;;;;;;16.70;8.73;;;;;;;-145.45;100.00;62759.84;5324062;28;20046;-85
2022/05/30 04:33:55;;;;;;;23.30;9.32;;;;;;;-145.45;100.00;62759.84;5305155;28;20024;-84
2022/05/30 04:36:26;;;;;;;16.77;9.05;;;;;;;-145.45;100.00;62759.84;5305644;28;20024;-84
2022/05/30 04:38:58;;;;;;;15.77;8.52;;;;;;;-145.45;100.00;62759.84;5305906;28;20031;-84
2022/05/30 04:41:29;;;;;;;20.55;9.50;;;;;;;-145.45;100.00;62759.84;5298534;28;20380;-85
2022/05/30 04:44:04;;;;;;;25.05;10.10;;;;;;;-145.45;100.00;62759.84;5302117;28;20432;-84
2022/05/30 04:46:35;;;;;;;16.50;9.10;;;;;;;-145.45;100.00;62759.84;5283812;28;20024;-84
2022/05/30 04:49:07;;;;;;;15.82;9.73;;;;;;;-145.45;100.00;62759.84;5302626;28;20070;-84
2022/05/30 04:51:38;;;;;;;17.95;9.43;;;;;;;-145.45;100.00;62759.84;5302794;28;20385;-84
2022/05/30 04:54:12;;;;;;;20.98;9.70;;;;;;;-145.45;100.00;62759.84;5283591;28;20094;-84
2022/05/30 04:56:44;;;;;;;20.17;10.85;;;;;;;-145.45;100.00;62759.84;5303015;28;20509;-84
2022/05/30 04:59:19;;;;;;;18.52;9.70;;;;;;;-145.45;100.00;62759.84;5283404;28;20029;-85
2022/05/30 05:01:50;;;;;;;21.42;10.73;;;;;;;-145.45;100.00;62759.84;5284008;28;20088;-85
2022/05/30 05:04:22;;;;;;;21.98;10.75;;;;;;;-145.45;100.00;62759.84;5303798;28;20035;-84
2022/05/30 05:06:53;;;;;;;19.23;10.45;;;;;;;-145.45;100.00;62759.84;5305776;28;20012;-84
2022/05/30 05:09:37;;;;;;;17.83;9.60;;;;;;;-145.45;100.00;62759.84;5287627;28;20062;-84
2022/05/30 05:12:09;;;;;;;20.77;11.80;;;;;;;-145.45;100.00;62759.84;5305126;28;20020;-84
2022/05/30 05:14:41;;;;;;;25.52;11.32;;;;;;;-145.45;100.00;62759.84;5305230;28;20500;-83
2022/05/30 05:17:13;;;;;;;19.98;11.13;;;;;;;-145.45;100.00;62759.84;5305483;28;20028;-83
2022/05/30 05:19:45;;;;;;;21.85;10.50;;;;;;;-145.45;100.00;62759.84;5305689;28;20071;-84
2022/05/30 05:22:16;;;;;;;22.73;11.55;;;;;;;-145.45;100.00;62759.84;5287877;28;20103;-85
2022/05/30 05:24:50;;;;;;;20.27;10.43;;;;;;;-145.45;100.00;62759.84;5308235;28;20028;-85
2022/05/30 05:27:24;;;;;;;22.35;11.40;;;;;;;-145.45;100.00;62759.84;5326684;28;20074;-85
2022/05/30 05:29:55;;;;;;;25.88;10.77;;;;;;;-145.45;100.00;62759.84;5325930;28;20020;-84
2022/05/30 05:32:27;;;;;;;19.00;9.88;;;;;;;-145.45;100.00;62759.84;5327310;28;20336;-85
2022/05/30 05:34:58;;;;;;;15.90;10.40;;;;;;;-145.45;100.00;62759.84;5308161;28;20018;-84
2022/05/30 05:37:32;;;;;;;15.90;9.27;;;;;;;-145.45;100.00;62759.84;5309069;28;20452;-83
2022/05/30 05:40:05;;;;;;;14.52;7.65;;;;;;;-145.45;100.00;62759.84;5325447;28;20468;-84
2022/05/30 05:42:39;;;;;;;12.25;7.40;;;;;;;-145.45;100.00;62759.84;5326884;28;20344;-83
2022/05/30 05:45:11;;;;;;;13.65;6.20;;;;;;;-145.45;100.00;62759.84;5307454;28;20020;-83
2022/05/30 05:47:45;;;;;;;10.73;7.45;;;;;;;-145.45;100.00;62759.84;5326984;28;20016;-84
2022/05/30 05:50:19;;;;;;;14.55;6.63;;;;;;;-145.45;100.00;62759.84;5326278;28;20024;-84
2022/05/30 05:52:54;;;;;;;19.08;7.15;;;;;;;-145.45;100.00;62759.84;5296436;28;20039;-84
2022/05/30 05:55:26;;;;;;;13.23;6.07;;;;;;;-145.45;100.00;62759.84;5305106;28;20452;-84
2022/05/30 05:57:57;;;;;;;12.93;5.68;;;;;;;-145.45;100.00;62759.84;5305392;28;20059;-85
2022/05/30 06:00:31;;;;;;;10.13;4.93;;;;;;;-145.45;100.00;62759.84;5286958;28;20016;-85
2022/05/30 06:03:11;;;;;;;12.73;5.03;;;;;;;-145.45;100.00;62759.84;5286005;28;20031;-84
2022/05/30 06:05:51;;;;;;;8.85;3.60;;;;;;;-145.45;100.00;62759.84;5305045;28;20103;-85
2022/05/30 06:08:30;;;;;;;7.90;3.53;;;;;;;-145.45;100.00;62759.84;5286034;28;20111;-85
2022/05/30 06:11:12;;;;;;;7.88;3.55;;;;;;;-145.45;100.00;62759.84;5286633;28;20052;-83
2022/05/30 06:13:49;;;;;;;9.18;2.42;;;;;;;-145.45;100.00;62759.84;5285108;28;20484;-85
2022/05/30 06:16:26;;;;;;;9.25;3.38;;;;;;;-145.45;100.00;62759.84;5304377;28;20413;-84
2022/05/30 06:19:03;;;;;;;8.40;2.75;;;;;;;-145.45;100.00;62759.84;5285733;28;20036;-85
2022/05/30 06:21:56;;;;;;;9.13;3.10;;;;;;;-145.45;100.00;62759.84;5305108;28;20360;-84
2022/05/30 06:24:31;;;;;;;8.05;2.80;;;;;;;-145.45;100.00;62759.84;5304394;28;20075;-84
2022/05/30 06:27:10;;;;;;;8.98;2.28;;;;;;;-145.45;100.00;62759.84;5304352;28;20024;-85
2022/05/30 06:29:51;;;;;;;8.52;2.50;;;;;;;-145.45;100.00;62759.84;5285643;28;20024;-84
2022/05/30 06:32:28;;;;;;;7.97;2.45;;;;;;;-145.45;100.00;62759.84;5286269;28;20495;-84
2022/05/30 06:34:59;;;;;;;5.03;2.05;;;;;;;-145.45;100.00;62759.84;5304108;28;20021;-83
2022/05/30 06:37:34;;;;;;;4.72;1.70;;;;;;;-145.45;100.00;62759.84;5305253;28;20093;-82
2022/05/30 06:40:09;;;;;;;9.65;1.90;;;;;;;-145.45;100.00;62759.84;5304636;28;20424;-84
2022/05/30 06:42:40;;;;;;;7.25;2.10;;;;;;;-145.45;100.00;62759.84;5304090;28;20028;-84
2022/05/30 06:45:18;;;;;;;4.72;1.40;;;;;;;-145.45;100.00;62759.84;5303678;28;20032;-84
2022/05/30 06:47:50;;;;;;;5.05;1.60;;;;;;;-145.45;100.00;62759.84;5285492;28;20021;-84
2022/05/30 06:50:24;;;;;;;3.85;1.60;;;;;;;-145.45;100.00;62759.84;5286268;28;20339;-84
2022/05/30 06:52:56;;;;;;;6.25;1.42;;;;;;;-145.45;100.00;62759.84;5304068;28;20020;-84
2022/05/30 06:55:33;;;;;;;5.50;1.75;;;;;;;-145.45;100.00;62759.84;5303539;28;20047;-83
2022/05/30 06:58:14;;;;;;;6.93;1.70;;;;;;;-145.45;100.00;62759.84;5285328;28;20028;-84
2022/05/30 07:00:54;;;;;;;5.82;1.50;;;;;;;-145.45;100.00;62759.84;5303547;28;20469;-84
2022/05/30 07:03:25;;;;;;;7.05;1.83;;;;;;;-145.45;100.00;62759.84;5284965;28;20037;-84
2022/05/30 07:06:07;;;;;;;6.00;1.38;;;;;;;-145.45;100.00;62759.84;5286312;28;20013;-84
2022/05/30 07:08:39;;;;;;;4.80;1.52;;;;;;;-145.45;100.00;62759.84;5284854;28;20028;-84
2022/05/30 07:11:21;;;;;;;6.38;1.33;;;;;;;-145.45;100.00;62759.84;5285866;28;20099;-84
2022/05/30 07:13:55;;;;;;;4.43;1.42;;;;;;;-145.45;100.00;62759.84;5286466;28;20032;-85
2022/05/30 07:16:27;;;;;;;6.70;1.20;;;;;;;-145.45;100.00;62759.84;5304090;28;20044;-84
2022/05/30 07:21:50;;;;;;;4.55;1.63;;;;;;;-145.45;100.00;62759.84;5288037;28;20029;-85
2022/05/30 07:24:28;;;;;;;5.53;1.63;;;;;;;-145.45;100.00;62759.84;5287871;28;20477;-85
2022/05/30 07:27:07;;;;;;;5.05;1.05;;;;;;;-145.45;100.00;62759.84;5301837;28;20067;-84
2022/05/30 07:29:38;;;;;;;3.40;0.95;;;;;;;-145.45;100.00;62759.84;5302883;28;20396;-85
2022/05/30 07:32:09;;;;;;;4.32;1.35;;;;;;;-145.45;100.00;62759.84;5324299;28;20106;-83
2022/05/30 07:34:41;;;;;;;5.22;0.90;;;;;;;-145.45;100.00;62759.84;5307727;28;20005;-84
2022/05/30 07:37:13;;;;;;;4.45;0.90;;;;;;;-145.45;100.00;62759.84;5307063;28;20417;-85
2022/05/30 07:39:52;;;;;;;4.03;1.10;;;;;;;-145.45;100.00;62759.84;5325074;28;20025;-83
2022/05/30 07:42:26;;;;;;;3.80;0.80;;;;;;;-145.45;100.00;62759.84;5289151;28;20028;-84
2022/05/30 07:45:00;;;;;;;3.50;1.30;;;;;;;-145.45;100.00;62759.84;5287083;28;20044;-85
2022/05/30 07:47:33;;;;;;;3.22;1.00;;;;;;;-145.45;100.00;62759.84;5287837;28;20024;-85
2022/05/30 07:50:13;;;;;;;2.85;1.05;;;;;;;-145.45;100.00;62759.84;5304323;28;20021;-85
2022/05/30 07:52:50;;;;;;;5.38;1.20;;;;;;;-145.45;100.00;62759.84;5302411;28;20028;-85
2022/05/30 07:55:26;;;;;;;3.72;1.13;;;;;;;-145.45;100.00;62759.84;5287405;28;20026;-84
2022/05/30 07:58:08;;;;;;;3.00;1.02;;;;;;;-145.45;100.00;62759.84;5301821;28;20016;-85
2022/05/30 08:00:40;;;;;;;5.00;1.33;;;;;;;-145.45;100.00;62759.84;5284735;28;20412;-85
2022/05/30 08:03:16;;;;;;;3.22;0.90;;;;;;;-145.45;100.00;62759.84;5303797;28;20115;-85
2022/05/30 08:05:48;;;;;;;3.28;1.27;;;;;;;-145.45;100.00;62759.84;5285154;28;20044;-84
2022/05/30 08:08:22;;;;;;;4.78;1.10;;;;;;;-145.45;100.00;62759.84;5303949;28;20012;-85
2022/05/30 08:10:54;;;;;;;4.78;1.00;;;;;;;-145.45;100.00;62759.84;5284377;28;20048;-85
2022/05/30 08:13:25;;;;;;;3.28;1.00;;;;;;;-145.45;100.00;62759.84;5304282;28;20013;-85
2022/05/30 08:16:04;;;;;;;2.88;0.80;;;;;;;-145.45;100.00;62759.84;5302994;28;20595;-85
2022/05/30 08:18:38;;;;;;;4.25;1.40;;;;;;;-145.45;100.00;62759.84;5281691;28;20027;-84
2022/05/30 08:21:17;;;;;;;3.83;1.00;;;;;;;-145.45;100.00;62759.84;5302221;28;20050;-84
2022/05/30 08:23:52;;;;;;;4.43;1.05;;;;;;;-145.45;100.00;62759.84;5286258;28;20033;-84
2022/05/30 08:26:29;;;;;;;4.38;1.13;;;;;;;-145.45;100.00;62759.84;5306101;28;20028;-84
2022/05/30 08:29:05;;;;;;;2.90;1.30;;;;;;;-145.45;100.00;62759.84;5306655;28;20498;-84
2022/05/30 08:31:37;;;;;;;2.10;0.95;;;;;;;-145.45;100.00;62759.84;5324686;28;20024;-84
2022/05/30 08:34:11;;;;;;;3.35;1.08;;;;;;;-145.45;100.00;62759.84;5324372;28;20380;-84
2022/05/30 08:36:45;;;;;;;5.22;1.00;;;;;;;-145.45;100.00;62759.84;5288669;28;20500;-84
2022/05/30 08:42:10;;;;;;;3.00;0.82;;;;;;;-145.45;100.00;62759.84;5312914;28;20036;-84
2022/05/30 08:44:47;;;;;;;3.03;1.00;;;;;;;-145.45;100.00;62759.84;5327800;28;20043;-85
2022/05/30 08:47:37;;;;;;;3.50;1.00;;;;;;;-145.45;100.00;62759.84;5327807;28;20028;-85
2022/05/30 08:50:21;;;;;;;2.17;1.00;;;;;;;-145.45;100.00;62759.84;5308328;28;20044;-85
2022/05/30 08:53:18;;;;;;;4.53;1.30;;;;;;;-145.45;100.00;62759.84;5319562;28;20124;-85
2022/05/30 08:56:20;;;;;;;1.63;0.75;;;;;;;-145.45;100.00;62759.84;5316076;28;20047;-85
2022/05/30 08:59:17;;;;;;;3.90;1.08;;;;;;;-145.45;100.00;62759.84;5317327;28;20575;-86
2022/05/30 09:02:06;;;;;;;4.40;0.90;;;;;;;-145.45;100.00;62759.84;5313491;28;20039;-85
2022/05/30 09:04:53;;;;;;;2.83;0.95;;;;;;;-145.45;100.00;62759.84;5334910;28;20460;-85
2022/05/30 09:07:58;;;;;;;;;;;;;;;-145.45;100.00;62759.84;5314649;28;20194;-86
2022/05/30 09:10:59;;;;;;;3.42;0.90;;;;;;;-145.45;100.00;62759.84;5309949;28;19916;-86
2022/05/30 09:13:50;;;;;;;1.77;0.82;;;;;;;-145.45;100.00;62759.84;5316443;28;20060;-85
2022/05/30 09:16:56;;;;;;;3.42;0.93;;;;;;;-145.45;100.00;62759.84;5333225;27;20044;-85
2022/05/30 09:19:33;;;;;;;2.58;0.93;;;;;;;-145.45;100.00;62759.84;5328264;28;20096;-86
2022/05/30 09:22:06;;;;;;;3.33;0.82;;;;;;;-145.45;100.00;62759.84;5307065;28;20107;-84
2022/05/30 09:24:40;;;;;;;0.80;0.50;;;;;;;-145.45;100.00;62759.84;5329526;28;20086;-84
2022/05/30 09:27:15;;;;;;;2.97;0.88;;;;;;;-145.45;100.00;62759.84;5293516;28;20025;-84
2022/05/30 09:29:57;;;;;;;3.42;0.85;;;;;;;-145.45;100.00;62759.84;5325952;28;20051;-85
2022/05/30 09:32:59;;;;;;;2.58;0.80;;;;;;;-145.45;100.00;62759.84;5344383;28;20046;-83
2022/05/30 09:35:36;;;;;;;3.28;0.82;;;;;;;-145.45;100.00;62759.84;5348972;28;20012;-83
2022/05/30 09:38:22;;;;;;;2.25;0.90;;;;;;;-145.45;100.00;62759.84;5350336;28;20028;-83
2022/05/30 09:41:06;;;;;;;3.80;1.00;;;;;;;-145.45;100.00;62759.84;5328684;28;20131;-85
2022/05/30 09:44:07;;;;;;;3.17;0.98;;;;;;;-145.45;100.00;62759.84;5327466;28;20039;-85
2022/05/30 09:46:48;;;;;;;4.82;1.30;;;;;;;-145.45;100.00;62759.84;5303591;28;20102;-84
2022/05/30 09:49:25;;;;;;;3.10;1.10;;;;;;;-145.45;100.00;62759.84;5308545;28;20085;-84
2022/05/30 09:52:02;;;;;;;3.10;0.98;;;;;;;-145.45;100.00;62759.84;5307233;28;20023;-84
2022/05/30 09:54:38;;;;;;;3.10;1.00;;;;;;;-145.45;100.00;62759.84;5307815;28;20409;-85
2022/05/30 09:57:16;;;;;;;2.47;0.90;;;;;;;-145.45;100.00;62759.84;5288838;28;20086;-85
2022/05/30 09:59:57;;;;;;;4.95;1.00;;;;;;;-145.45;100.00;62759.84;5326677;28;20024;-84
2022/05/30 10:02:37;;;;;;;1.98;0.90;;;;;;;-145.45;100.00;62759.84;5308413;28;20404;-85
2022/05/30 10:05:21;;;;;;;5.03;1.25;;;;;;;-145.45;100.00;62759.84;5326037;28;20134;-84
2022/05/30 10:08:00;;;;;;;3.13;0.82;;;;;;;-145.45;100.00;62759.84;5314185;28;20058;-85
2022/05/30 10:10:52;;;;;;;3.17;1.00;;;;;;;-145.45;100.00;62759.84;5287238;28;20020;-85
2022/05/30 10:13:58;;;;;;;3.63;0.90;;;;;;;-145.45;100.00;62759.84;5286420;28;20029;-85
2022/05/30 10:16:38;;;;;;;3.55;1.17;;;;;;;-145.45;100.00;62759.84;5322365;28;20052;-85
2022/05/30 10:19:31;;;;;;;3.60;0.93;;;;;;;-145.45;100.00;62759.84;5326091;27;20421;-84
2022/05/30 10:29:16;;;;;;;2.35;0.88;;;;;;;-145.45;100.00;62759.84;5347614;27;20053;-85
2022/05/30 10:31:59;;;;;;;3.85;0.80;;;;;;;-145.45;100.00;62759.84;5243266;28;20041;-85
2022/05/30 10:34:52;;;;;;;3.35;0.90;;;;;;;-145.45;100.00;62759.84;5269606;27;20025;-85
2022/05/30 10:37:41;;;;;;;2.50;0.90;;;;;;;-145.45;100.00;62759.84;5346003;27;20105;-85
2022/05/30 10:40:46;;;;;;;1.98;0.90;;;;;;;-145.45;100.00;62759.84;5346675;27;21117;-85
2022/05/30 10:43:36;;;;;;;2.47;0.85;;;;;;;-145.45;100.00;62759.84;5346029;27;20044;-85
2022/05/30 10:47:18;;;;;;;;;;;;;;;;;;;;;
2022/05/30 10:53:50;;;;;;;3.60;0.63;;;;;;;-145.45;100.00;62759.84;5338691;27;20048;-85
2022/05/30 10:56:57;;;;;;;1.95;0.60;;;;;;;-145.45;100.00;62759.84;5341034;27;20028;-85
2022/05/30 10:59:48;;;;;;;2.50;0.70;;;;;;;-145.45;100.00;62759.84;5322979;28;20048;-85
2022/05/30 11:03:03;;;;;;;3.10;0.93;;;;;;;-145.45;100.00;62759.84;5341077;27;20123;-85
2022/05/30 11:06:27;;;;;;;4.30;0.90;;;;;;;-145.45;100.00;62759.84;5324475;27;20033;-85
2022/05/30 11:09:21;;;;;;;2.28;0.98;;;;;;;-145.45;100.00;62759.84;5279778;28;20400;-84
2022/05/30 11:12:23;;;;;;;4.00;1.20;;;;;;;-145.45;100.00;62759.84;5262859;28;20071;-84
2022/05/30 11:15:06;;;;;;;4.55;1.55;;;;;;;-145.45;100.00;62759.84;5323055;28;20478;-84
2022/05/30 11:18:27;;;;;;;5.18;1.55;;;;;;;-145.45;100.00;62759.84;5321968;28;20047;-84
2022/05/30 11:21:07;;;;;;;4.65;1.23;;;;;;;-145.45;100.00;62759.84;5291443;28;20028;-84
2022/05/30 11:23:39;;;;;;;3.67;1.08;;;;;;;-145.45;100.00;62759.84;5323127;28;20154;-84
2022/05/30 11:26:48;;;;;;;5.03;1.23;;;;;;;-145.45;100.00;62759.84;5323854;28;20016;-84
2022/05/30 11:29:34;;;;;;;5.10;1.42;;;;;;;-145.45;100.00;62759.84;5340216;28;20024;-84
2022/05/30 11:32:33;;;;;;;5.97;1.17;;;;;;;-145.45;100.00;62759.84;5357501;27;20097;-84
2022/05/30 11:35:35;;;;;;;3.85;1.20;;;;;;;-145.45;100.00;62759.84;5363988;27;20040;-84
2022/05/30 11:38:14;;;;;;;2.45;1.05;;;;;;;-145.45;100.00;62759.84;5329199;27;20082;-85
2022/05/30 11:41:01;;;;;;;4.43;1.20;;;;;;;-145.45;100.00;62759.84;5325853;27;20039;-84
2022/05/30 11:43:58;;;;;;;4.47;1.50;;;;;;;-145.45;100.00;62759.84;5340743;27;20105;-85
2022/05/30 11:47:01;;;;;;;5.50;1.40;;;;;;;-145.45;100.00;62759.84;5325299;27;20040;-84
2022/05/30 11:50:00;;;;;;;5.55;1.50;;;;;;;-145.45;100.00;62759.84;5323025;27;20017;-85
2022/05/30 11:52:53;;;;;;;6.53;1.60;;;;;;;-145.45;100.00;62759.84;5317311;27;20031;-84
2022/05/30 11:56:06;;;;;;;5.40;1.60;;;;;;;-145.45;100.00;62759.84;5339931;27;20023;-85
2022/05/30 11:59:07;;;;;;;5.18;1.50;;;;;;;-145.45;100.00;62759.84;5292071;28;20404;-84
2022/05/30 12:01:46;;;;;;;6.00;1.92;;;;;;;-145.45;100.00;62759.84;5324722;27;20083;-85
2022/05/30 12:04:53;;;;;;;4.65;1.58;;;;;;;-145.45;100.00;62759.84;5324302;27;20103;-85
2022/05/30 12:07:31;;;;;;;;;;;;;;;-145.45;100.00;62759.84;5323540;27;20044;-85
2022/05/30 12:10:25;;;;;;;3.83;1.20;;;;;;;-145.45;100.00;62759.84;5322289;27;19912;-84
2022/05/30 12:13:38;;;;;;;2.83;1.30;;;;;;;-145.45;100.00;62759.84;5324264;27;20059;-85
2022/05/30 12:16:30;;;;;;;4.82;1.30;;;;;;;-145.45;100.00;62759.84;5257747;28;20139;-84
2022/05/30 12:27:24;;;;;;;;;;;;;;;;;;;;;
2022/05/30 12:30:36;;;;;;;3.20;0.70;;;;;;;-145.45;100.00;62759.84;5254064;28;20052;-85
2022/05/30 12:36:59;;;;;;;3.88;1.17;;;;;;;-145.45;100.00;62759.84;5346430;27;20024;-85
2022/05/30 12:39:54;;;;;;;4.38;1.13;;;;;;;-145.45;100.00;62759.84;5346829;27;20172;-86
2022/05/30 12:42:44;;;;;;;2.45;1.23;;;;;;;-145.45;100.00;62759.84;5346761;27;20024;-86